Time;durP1;ratioP1;P1;durP2;ratioP2;P2;SDS_P1;SDS_P2;PMS_P1;PMS_P2;Temp;Humidity;BMP_temperature;BMP_pressure;BME280_temperature;BME280_humidity;BME280_pressure;Samples;Min_cycle;Max_cycle;Signal;HPM_P1;HPM_P2
2022/01/21 00:01:59;;;;;;;136.65;71.05;;;2.30;99.90;;;;;;5036869;28;20587;-82
2022/01/21 00:04:27;;;;;;;127.72;71.00;;;2.30;99.90;;;;;;5020793;28;20084;-82
2022/01/21 00:06:54;;;;;;;136.48;73.03;;;2.20;99.90;;;;;;5054882;28;20041;-82
2022/01/21 00:09:21;;;;;;;144.82;72.82;;;2.30;99.90;;;;;;5020525;28;20049;-83
2022/01/21 00:11:48;;;;;;;136.68;74.47;;;2.40;99.90;;;;;;5054732;28;20465;-83
2022/01/21 00:14:16;;;;;;;146.30;76.80;;;2.40;99.90;;;;;;5020306;28;20501;-82
2022/01/21 00:16:43;;;;;;;144.65;76.93;;;2.40;99.90;;;;;;5020747;28;20131;-82
2022/01/21 00:19:14;;;;;;;146.23;77.13;;;2.40;99.90;;;;;;5036838;28;20396;-82
2022/01/21 00:32:35;;;;;;;112.63;61.50;;;2.50;99.90;;;;;;5054559;28;20151;-80
2022/01/21 00:35:03;;;;;;;126.25;65.00;;;2.50;99.90;;;;;;5036276;28;20041;-83
2022/01/21 00:37:31;;;;;;;123.03;63.50;;;2.50;99.90;;;;;;5036109;28;20060;-82
2022/01/21 00:40:00;;;;;;;131.88;66.88;;;2.60;99.90;;;;;;5036499;28;20051;-81
2022/01/21 00:44:59;;;;;;;113.18;62.65;;;2.40;99.90;;;;;;5036350;28;20114;-81
2022/01/21 00:47:28;;;;;;;102.53;58.13;;;2.20;99.90;;;;;;5054194;28;20037;-81
2022/01/21 00:49:56;;;;;;;104.53;57.30;;;2.30;99.90;;;;;;5053731;28;20045;-81
2022/01/21 00:52:23;;;;;;;105.47;58.13;;;1.90;99.90;;;;;;5036138;28;20300;-81
2022/01/21 00:54:51;;;;;;;105.32;60.33;;;1.70;99.90;;;;;;5054022;28;20048;-81
2022/01/21 00:57:18;;;;;;;110.25;62.85;;;2.00;99.90;;;;;;5036230;28;20052;-82
2022/01/21 00:59:46;;;;;;;112.70;61.22;;;2.00;99.90;;;;;;5036485;28;20094;-83
2022/01/21 01:02:13;;;;;;;114.57;58.78;;;2.10;99.90;;;;;;5036529;28;20043;-82
2022/01/21 01:04:41;;;;;;;118.95;61.90;;;2.40;99.90;;;;;;5036270;28;20051;-84
2022/01/21 01:07:08;;;;;;;106.13;59.88;;;2.50;99.90;;;;;;5054021;28;20045;-82
2022/01/21 01:09:36;;;;;;;118.15;58.88;;;2.30;99.90;;;;;;5036216;28;20045;-82
2022/01/21 01:20:16;;;;;;;85.63;43.85;;;2.00;99.90;;;;;;4966488;28;20154;-82
2022/01/21 01:27:58;;;;;;;51.55;31.40;;;1.70;99.90;;;;;;5035399;28;20091;-81
2022/01/21 01:30:28;;;;;;;59.55;34.53;;;1.80;99.90;;;;;;5019209;28;20166;-82
2022/01/21 01:32:58;;;;;;;55.83;31.17;;;1.80;99.90;;;;;;5053070;28;20064;-82
2022/01/21 01:35:30;;;;;;;61.10;32.13;;;1.80;99.90;;;;;;5035680;28;20491;-84
2022/01/21 01:40:33;;;;;;;90.88;50.95;;;2.30;99.90;;;;;;5035322;28;20057;-81
2022/01/21 01:50:58;;;;;;;116.15;57.33;;;2.20;99.90;;;;;;5034762;28;20051;-80
2022/01/21 01:53:37;;;;;;;104.53;56.55;;;2.40;99.90;;;;;;5052967;28;20124;-81
2022/01/21 01:56:07;;;;;;;103.15;55.10;;;2.40;99.90;;;;;;5018818;28;20382;-80
2022/01/21 01:58:37;;;;;;;103.13;56.10;;;2.40;99.90;;;;;;5035325;28;20557;-80
2022/01/21 02:01:05;;;;;;;101.00;55.30;;;2.60;99.90;;;;;;5035317;28;20041;-81
2022/01/21 02:03:33;;;;;;;105.93;56.92;;;2.60;99.90;;;;;;5052815;28;20041;-81
2022/01/21 02:06:01;;;;;;;108.93;56.47;;;2.70;99.90;;;;;;5035129;28;20143;-82
2022/01/21 02:08:29;;;;;;;113.95;58.78;;;2.50;99.90;;;;;;5035019;28;20041;-81
2022/01/21 02:10:57;;;;;;;120.15;63.22;;;2.50;99.90;;;;;;5034839;28;20477;-82
2022/01/21 02:13:31;;;;;;;107.75;60.33;;;2.40;99.90;;;;;;5052583;28;20412;-80
2022/01/21 02:16:31;;;;;;;106.72;58.78;;;2.30;99.90;;;;;;5035049;28;20458;-81
2022/01/21 02:21:46;;;;;;;104.95;59.88;;;2.30;99.90;;;;;;5052619;28;20297;-80
2022/01/21 02:24:29;;;;;;;104.28;58.47;;;2.30;99.90;;;;;;5034937;28;20041;-81
2022/01/21 02:26:59;;;;;;;106.03;56.97;;;2.40;99.90;;;;;;5018453;28;20140;-80
2022/01/21 02:29:33;;;;;;;94.93;51.97;;;2.40;99.90;;;;;;5018421;28;20036;-81
2022/01/21 02:32:01;;;;;;;97.20;51.45;;;2.30;99.90;;;;;;5018232;28;20057;-81
2022/01/21 02:34:30;;;;;;;90.57;49.90;;;2.40;99.90;;;;;;5034438;28;20052;-80
2022/01/21 02:36:57;;;;;;;90.28;48.53;;;2.30;99.90;;;;;;5052210;28;20083;-82
2022/01/21 02:39:25;;;;;;;83.15;50.25;;;2.40;99.90;;;;;;5034115;28;20048;-81
2022/01/21 02:41:52;;;;;;;84.50;49.53;;;2.40;99.90;;;;;;5052052;28;20049;-82
2022/01/21 02:44:22;;;;;;;96.97;48.50;;;2.40;99.90;;;;;;5034873;28;20037;-81
2022/01/21 02:46:57;;;;;;;93.53;48.17;;;2.20;99.90;;;;;;5034807;28;20061;-82
2022/01/21 02:49:25;;;;;;;82.03;46.25;;;2.10;99.90;;;;;;5034271;28;20045;-81
2022/01/21 02:51:54;;;;;;;87.15;47.33;;;2.30;99.90;;;;;;5018032;28;20131;-81
2022/01/21 02:54:22;;;;;;;91.35;49.10;;;2.20;99.90;;;;;;5052239;28;20045;-81
2022/01/21 02:56:50;;;;;;;95.03;51.50;;;2.00;99.90;;;;;;5033996;28;20575;-82
2022/01/21 02:59:17;;;;;;;98.63;51.05;;;2.30;99.90;;;;;;5034031;28;20051;-83
2022/01/21 03:01:45;;;;;;;86.03;50.10;;;2.20;99.90;;;;;;5051526;28;20037;-82
2022/01/21 03:04:19;;;;;;;90.95;48.95;;;2.20;99.90;;;;;;5034259;28;20041;-82
2022/01/21 03:06:47;;;;;;;96.72;52.00;;;2.40;99.90;;;;;;5017973;28;20037;-81
2022/01/21 03:09:14;;;;;;;105.43;54.90;;;2.20;99.90;;;;;;5034120;28;20049;-81
2022/01/21 03:11:42;;;;;;;98.15;54.13;;;2.30;99.90;;;;;;5034115;28;20112;-81
2022/01/21 03:14:09;;;;;;;93.45;52.58;;;2.30;99.90;;;;;;5051453;28;20059;-83
2022/01/21 03:16:37;;;;;;;95.03;52.03;;;2.30;99.90;;;;;;5034268;28;20045;-81
2022/01/21 03:19:04;;;;;;;101.65;52.90;;;2.10;99.90;;;;;;5052381;28;20044;-81
2022/01/21 03:21:32;;;;;;;94.80;50.05;;;2.10;99.90;;;;;;5034025;28;20068;-80
2022/01/21 03:23:59;;;;;;;99.60;49.85;;;2.40;99.90;;;;;;5034164;28;20057;-83
2022/01/21 03:26:27;;;;;;;95.00;52.00;;;2.40;99.90;;;;;;5034263;28;20053;-81
2022/01/21 03:29:00;;;;;;;88.43;52.33;;;2.40;99.90;;;;;;5033951;28;20417;-80
2022/01/21 03:31:29;;;;;;;98.97;52.60;;;2.40;99.90;;;;;;5051928;28;20103;-81
2022/01/21 03:34:00;;;;;;;95.88;50.13;;;2.30;99.90;;;;;;5018278;28;20041;-82
2022/01/21 03:36:28;;;;;;;93.30;50.83;;;2.50;99.90;;;;;;5034486;28;20052;-81
2022/01/21 03:38:56;;;;;;;90.15;48.65;;;2.60;99.90;;;;;;5034080;28;20099;-81
2022/01/21 03:41:24;;;;;;;86.65;49.35;;;2.80;99.90;;;;;;5034007;28;20057;-81
2022/01/21 03:43:51;;;;;;;75.75;46.40;;;2.90;99.90;;;;;;5051522;28;20041;-82
2022/01/21 03:46:19;;;;;;;91.70;46.50;;;2.90;99.90;;;;;;5034065;28;20037;-82
2022/01/21 03:48:49;;;;;;;77.70;45.20;;;2.70;99.90;;;;;;5017712;28;20049;-81
2022/01/21 03:51:20;;;;;;;79.10;43.28;;;2.40;99.90;;;;;;5034048;28;20048;-82
2022/01/21 03:53:48;;;;;;;83.80;45.33;;;2.30;99.90;;;;;;5051479;28;20395;-82
2022/01/21 03:56:16;;;;;;;77.20;42.92;;;1.90;99.90;;;;;;5051398;28;20068;-80
2022/01/21 03:58:49;;;;;;;79.18;43.85;;;2.00;99.90;;;;;;5018364;28;20389;-82
2022/01/21 04:01:18;;;;;;;75.35;43.13;;;2.10;99.90;;;;;;5033783;28;20441;-80
2022/01/21 04:03:46;;;;;;;78.38;43.35;;;2.20;99.90;;;;;;5017714;28;20049;-82
2022/01/21 04:06:13;;;;;;;87.07;44.30;;;2.00;99.90;;;;;;5033796;28;20119;-80
2022/01/21 04:08:40;;;;;;;85.03;44.25;;;2.10;99.90;;;;;;5051531;28;20051;-82
2022/01/21 04:11:08;;;;;;;84.00;43.50;;;2.20;99.90;;;;;;5033698;28;20051;-81
2022/01/21 04:13:35;;;;;;;83.40;42.60;;;2.10;99.90;;;;;;5036529;28;20049;-81
2022/01/21 04:16:03;;;;;;;73.25;42.53;;;2.10;99.90;;;;;;5055036;28;20063;-82
2022/01/21 04:18:32;;;;;;;82.63;45.20;;;2.10;99.90;;;;;;5037341;28;20281;-83
2022/01/21 04:21:00;;;;;;;79.53;44.78;;;2.10;99.90;;;;;;5055058;28;20112;-83
2022/01/21 04:23:27;;;;;;;78.78;43.65;;;2.10;99.90;;;;;;5037055;28;20041;-83
2022/01/21 04:25:55;;;;;;;67.97;41.72;;;2.00;99.90;;;;;;5037175;28;20037;-83
2022/01/21 04:28:24;;;;;;;67.35;39.08;;;1.90;99.90;;;;;;5054763;28;20033;-81
2022/01/21 04:30:51;;;;;;;59.83;36.30;;;1.80;99.90;;;;;;5054430;28;20041;-82
2022/01/21 04:33:18;;;;;;;63.38;34.40;;;1.70;99.90;;;;;;5020390;28;20053;-82
2022/01/21 04:35:46;;;;;;;43.42;28.23;;;1.90;99.90;;;;;;5037006;28;20041;-82
2022/01/21 04:38:16;;;;;;;39.75;26.00;;;1.70;99.90;;;;;;5054478;28;20392;-82
2022/01/21 04:40:51;;;;;;;29.08;18.40;;;2.00;99.90;;;;;;5054473;28;20041;-82
2022/01/21 04:48:50;;;;;;;32.88;20.48;;;1.60;99.90;;;;;;5054526;28;20045;-81
2022/01/21 04:51:26;;;;;;;32.88;20.60;;;1.70;99.90;;;;;;5036473;28;20060;-80
2022/01/21 04:53:54;;;;;;;29.65;17.05;;;1.70;99.90;;;;;;5036359;28;20069;-82
2022/01/21 04:56:22;;;;;;;27.27;16.95;;;1.80;99.90;;;;;;5036412;28;20048;-81
2022/01/21 04:58:50;;;;;;;21.48;14.20;;;1.70;99.90;;;;;;5020112;28;20037;-80
2022/01/21 05:01:17;;;;;;;25.40;15.13;;;1.70;99.90;;;;;;5036197;28;20120;-83
2022/01/21 05:03:46;;;;;;;22.52;14.55;;;1.90;99.90;;;;;;5054549;28;20052;-80
2022/01/21 05:06:14;;;;;;;18.40;13.85;;;2.00;99.90;;;;;;5036497;28;20500;-81
2022/01/21 05:08:47;;;;;;;28.02;15.50;;;2.10;99.90;;;;;;5036177;28;20137;-81
2022/01/21 05:11:16;;;;;;;21.08;14.27;;;2.20;99.90;;;;;;5036605;28;20053;-81
2022/01/21 05:13:56;;;;;;;25.27;16.77;;;2.20;99.90;;;;;;5054088;28;20053;-83
2022/01/21 05:18:57;;;;;;;;;;;2.10;99.90;;;;;;5054977;28;20045;-83
2022/01/21 05:21:24;;;;;;;49.38;28.27;;;2.00;99.90;;;;;;5035865;28;20015;-82
2022/01/21 05:23:52;;;;;;;56.67;33.22;;;1.90;99.90;;;;;;5036132;28;20378;-83
2022/01/21 05:26:19;;;;;;;33.78;23.40;;;1.90;99.90;;;;;;5036405;28;20441;-83
2022/01/21 05:28:47;;;;;;;19.42;12.68;;;2.10;99.90;;;;;;5035836;28;20043;-82
2022/01/21 05:31:16;;;;;;;20.80;13.70;;;2.20;99.90;;;;;;5053820;28;20056;-81
2022/01/21 05:33:44;;;;;;;16.00;11.38;;;2.20;99.90;;;;;;5035979;28;20048;-83
2022/01/21 05:36:11;;;;;;;21.60;15.52;;;2.30;99.90;;;;;;5035758;28;20333;-83
2022/01/21 05:38:38;;;;;;;26.58;18.15;;;2.50;99.90;;;;;;5035789;28;20041;-85
2022/01/21 05:41:06;;;;;;;40.65;24.73;;;2.70;99.90;;;;;;5035656;28;20048;-83
2022/01/21 05:43:34;;;;;;;45.67;29.67;;;2.70;99.90;;;;;;5053475;28;20039;-83
2022/01/21 05:48:47;;;;;;;55.40;32.45;;;2.80;99.90;;;;;;5053484;28;20048;-82
2022/01/21 05:51:18;;;;;;;65.15;34.22;;;2.80;99.90;;;;;;5035462;28;20037;-80
2022/01/21 05:53:46;;;;;;;57.58;34.47;;;2.70;99.90;;;;;;5035457;28;20119;-82
2022/01/21 05:56:16;;;;;;;58.45;34.53;;;2.50;99.90;;;;;;5035645;28;20072;-85
2022/01/21 05:58:44;;;;;;;57.78;35.15;;;2.40;99.90;;;;;;5018750;28;20065;-83
2022/01/21 06:01:12;;;;;;;58.90;33.38;;;2.40;99.90;;;;;;5035481;28;20511;-83
2022/01/21 06:03:39;;;;;;;54.50;33.83;;;2.30;99.90;;;;;;5018656;28;20300;-82
2022/01/21 06:06:06;;;;;;;52.30;32.42;;;2.30;99.90;;;;;;5052615;28;20033;-82
2022/01/21 06:08:34;;;;;;;50.60;32.15;;;2.40;99.90;;;;;;5018889;28;20045;-82
2022/01/21 06:11:02;;;;;;;60.88;34.53;;;2.50;99.90;;;;;;5018274;28;20139;-81
2022/01/21 06:13:30;;;;;;;49.95;32.30;;;2.40;99.90;;;;;;5030676;28;20049;-81
2022/01/21 06:15:59;;;;;;;51.35;31.88;;;2.50;99.90;;;;;;5015355;28;20049;-84
2022/01/21 06:18:26;;;;;;;53.17;32.13;;;2.50;99.90;;;;;;5016111;28;20042;-84
2022/01/21 06:20:55;;;;;;;52.63;31.38;;;2.50;99.90;;;;;;5033246;28;20049;-85
2022/01/21 06:23:22;;;;;;;48.60;32.13;;;2.50;99.90;;;;;;4999385;28;20400;-84
2022/01/21 06:25:49;;;;;;;51.95;31.08;;;2.40;99.90;;;;;;5015605;28;20055;-84
2022/01/21 06:28:17;;;;;;;44.97;29.38;;;2.50;99.90;;;;;;5032609;28;20484;-85
2022/01/21 06:30:44;;;;;;;49.13;31.52;;;2.40;99.90;;;;;;5014966;28;20148;-83
2022/01/21 06:33:11;;;;;;;57.08;32.15;;;2.20;99.90;;;;;;5015027;28;20037;-81
2022/01/21 06:35:38;;;;;;;54.13;33.30;;;1.80;99.90;;;;;;5031947;28;20049;-82
2022/01/21 06:38:06;;;;;;;53.40;33.92;;;1.60;99.90;;;;;;5014630;28;20053;-84
2022/01/21 06:40:33;;;;;;;44.17;27.30;;;1.50;99.90;;;;;;5014857;28;20041;-81
2022/01/21 06:43:06;;;;;;;44.80;24.73;;;1.50;99.90;;;;;;5032534;28;20038;-82
2022/01/21 06:45:34;;;;;;;26.63;17.50;;;1.60;99.90;;;;;;5032221;28;20053;-83
2022/01/21 06:48:04;;;;;;;25.33;16.42;;;1.60;99.90;;;;;;5015079;28;20045;-81
2022/01/21 06:50:34;;;;;;;17.58;13.52;;;1.60;99.90;;;;;;4998913;28;20140;-82
2022/01/21 06:53:01;;;;;;;15.23;10.25;;;1.60;99.90;;;;;;5015503;28;20133;-80
2022/01/21 06:55:29;;;;;;;23.38;12.00;;;1.60;99.90;;;;;;5015189;28;20049;-84
2022/01/21 06:57:57;;;;;;;14.73;10.77;;;1.80;99.90;;;;;;5032512;28;20470;-84
2022/01/21 07:00:25;;;;;;;12.20;9.00;;;1.90;99.90;;;;;;5014594;28;20055;-81
2022/01/21 07:02:53;;;;;;;8.57;6.82;;;1.90;99.90;;;;;;5015292;28;20072;-81
2022/01/21 07:05:29;;;;;;;8.10;6.28;;;1.90;99.90;;;;;;4999075;28;20046;-80
2022/01/21 07:07:58;;;;;;;8.10;6.25;;;1.90;99.90;;;;;;5014589;28;20041;-82
2022/01/21 07:10:27;;;;;;;6.10;5.50;;;2.00;99.90;;;;;;4998618;28;20041;-77
2022/01/21 07:12:54;;;;;;;5.53;4.97;;;1.90;99.90;;;;;;5014484;28;20155;-80
2022/01/21 07:15:22;;;;;;;7.80;4.75;;;1.90;99.90;;;;;;5051356;28;20048;-81
2022/01/21 07:17:52;;;;;;;5.30;4.47;;;1.90;99.90;;;;;;5034062;28;20049;-81
2022/01/21 07:20:21;;;;;;;6.22;4.57;;;1.90;99.90;;;;;;5051768;28;20052;-82
2022/01/21 07:22:48;;;;;;;4.63;4.22;;;1.90;99.90;;;;;;5034093;28;20045;-80
2022/01/21 07:25:16;;;;;;;5.32;4.68;;;1.80;99.90;;;;;;5033998;28;20480;-79
2022/01/21 07:27:49;;;;;;;4.82;4.32;;;1.80;99.90;;;;;;5018670;28;20041;-79
2022/01/21 07:30:16;;;;;;;5.55;4.70;;;1.80;99.90;;;;;;5051601;28;20455;-80
2022/01/21 07:32:44;;;;;;;6.50;4.30;;;1.90;99.90;;;;;;5051702;28;20041;-82
2022/01/21 07:35:14;;;;;;;4.93;4.43;;;1.90;99.90;;;;;;5017317;28;20049;-81
2022/01/21 07:38:02;;;;;;;5.60;5.00;;;2.00;99.90;;;;;;5033939;28;20045;-82
2022/01/21 07:40:29;;;;;;;5.20;4.50;;;2.00;99.90;;;;;;5033660;28;20372;-82
2022/01/21 07:42:57;;;;;;;5.60;4.45;;;1.90;99.90;;;;;;5034150;28;20140;-80
2022/01/21 07:45:24;;;;;;;4.85;4.35;;;1.90;99.90;;;;;;5051729;28;20103;-80
2022/01/21 07:47:52;;;;;;;4.70;4.15;;;1.90;99.90;;;;;;5035807;28;20045;-80
2022/01/21 07:50:19;;;;;;;4.32;3.92;;;2.00;99.90;;;;;;5037611;28;20515;-79
2022/01/21 07:52:46;;;;;;;5.13;4.25;;;2.00;99.90;;;;;;5055404;28;20419;-80
2022/01/21 07:55:14;;;;;;;4.97;4.47;;;2.00;99.90;;;;;;5055461;28;20394;-81
2022/01/21 07:57:45;;;;;;;5.53;4.93;;;2.10;99.90;;;;;;5037855;28;20443;-80
2022/01/21 08:00:13;;;;;;;4.80;4.30;;;2.10;99.90;;;;;;5020576;28;20047;-82
2022/01/21 08:02:40;;;;;;;5.00;4.50;;;2.10;99.90;;;;;;5037320;28;20118;-83
2022/01/21 08:05:08;;;;;;;5.45;4.20;;;2.20;99.90;;;;;;5054862;28;20494;-83
2022/01/21 08:07:35;;;;;;;5.57;4.20;;;2.30;99.90;;;;;;5055118;28;20437;-82
2022/01/21 08:10:04;;;;;;;5.55;4.63;;;2.20;99.90;;;;;;5054576;28;20044;-81
2022/01/21 08:12:31;;;;;;;5.32;4.45;;;2.30;99.90;;;;;;5037179;28;20045;-83
2022/01/21 08:14:59;;;;;;;6.07;4.57;;;2.40;99.90;;;;;;5036635;28;20052;-83
2022/01/21 08:17:29;;;;;;;5.47;4.90;;;2.30;99.90;;;;;;5037067;28;20049;-82
2022/01/21 08:19:57;;;;;;;;;;;2.30;99.90;;;;;;5037385;28;20033;-81
2022/01/21 08:22:26;;;;;;;4.55;3.97;;;2.40;99.90;;;;;;5036685;28;19968;-83
2022/01/21 08:24:53;;;;;;;6.03;4.60;;;2.40;99.90;;;;;;5037259;28;20388;-82
2022/01/21 08:27:21;;;;;;;9.00;4.82;;;2.40;99.90;;;;;;5036896;28;20396;-81
2022/01/21 08:29:49;;;;;;;4.80;4.30;;;2.40;99.90;;;;;;5036313;28;20123;-81
2022/01/21 08:32:18;;;;;;;5.47;4.60;;;2.40;99.90;;;;;;5036828;28;20045;-82
2022/01/21 08:34:45;;;;;;;5.38;4.22;;;2.50;99.90;;;;;;5054775;28;20119;-80
2022/01/21 08:37:12;;;;;;;5.20;4.70;;;2.50;99.90;;;;;;5020216;28;20053;-84
2022/01/21 08:39:40;;;;;;;5.95;4.57;;;2.50;99.90;;;;;;5020097;28;20077;-83
2022/01/21 08:42:07;;;;;;;8.52;5.38;;;2.50;99.90;;;;;;5020203;28;20037;-81
2022/01/21 08:44:35;;;;;;;10.57;6.32;;;2.40;99.90;;;;;;5036353;28;20412;-82
2022/01/21 08:47:03;;;;;;;9.85;7.60;;;2.40;99.90;;;;;;5036432;28;20396;-83
2022/01/21 08:49:39;;;;;;;13.70;9.48;;;2.40;99.90;;;;;;5037712;28;20043;-82
2022/01/21 08:52:07;;;;;;;13.65;9.02;;;2.40;99.90;;;;;;5019776;28;20389;-81
2022/01/21 08:54:34;;;;;;;22.52;10.90;;;2.50;99.90;;;;;;5036251;28;20527;-82
2022/01/21 08:57:02;;;;;;;17.58;11.30;;;2.40;99.90;;;;;;5036190;28;20091;-83
2022/01/21 08:59:31;;;;;;;16.33;11.50;;;2.50;99.90;;;;;;5035793;28;20048;-81
2022/01/21 09:01:58;;;;;;;22.58;14.52;;;2.60;99.90;;;;;;5036290;28;20037;-82
2022/01/21 09:04:26;;;;;;;26.50;16.38;;;3.00;99.90;;;;;;5036172;28;20095;-82
2022/01/21 09:06:54;;;;;;;19.33;14.57;;;2.90;99.90;;;;;;5036374;28;20044;-81
2022/01/21 09:09:21;;;;;;;27.27;17.00;;;2.90;99.90;;;;;;5036155;28;20049;-81
2022/01/21 09:11:49;;;;;;;27.15;15.75;;;3.10;99.90;;;;;;5035737;28;20040;-81
2022/01/21 09:14:16;;;;;;;27.23;16.95;;;3.40;99.90;;;;;;5035977;28;20053;-81
2022/01/21 09:16:45;;;;;;;22.90;15.50;;;3.10;99.90;;;;;;5019116;28;20052;-83
2022/01/21 09:19:12;;;;;;;23.45;16.38;;;3.00;99.90;;;;;;5035796;28;20400;-83
2022/01/21 09:21:42;;;;;;;29.23;17.02;;;2.90;99.90;;;;;;5035873;28;20397;-85
2022/01/21 09:24:09;;;;;;;28.73;18.23;;;2.70;99.90;;;;;;5035784;28;20132;-86
2022/01/21 09:26:37;;;;;;;28.80;18.48;;;2.70;99.90;;;;;;5019261;28;20049;-81
2022/01/21 09:29:06;;;;;;;27.45;18.50;;;2.70;99.90;;;;;;5053669;28;20068;-82
2022/01/21 09:31:34;;;;;;;28.60;19.30;;;2.80;99.90;;;;;;5019150;28;20045;-80
2022/01/21 09:34:24;;;;;;;34.20;19.98;;;2.80;99.90;;;;;;5035511;28;20041;-81
2022/01/21 09:36:56;;;;;;;26.63;16.43;;;2.80;99.90;;;;;;5019099;28;20049;-82
2022/01/21 09:39:25;;;;;;;26.90;17.05;;;2.80;99.90;;;;;;5035331;28;20076;-82
2022/01/21 09:41:58;;;;;;;14.13;10.60;;;2.80;99.90;;;;;;5035412;28;20125;-82
2022/01/21 09:44:27;;;;;;;16.27;7.97;;;2.70;99.90;;;;;;5052726;28;20049;-82
2022/01/21 09:46:58;;;;;;;10.90;8.13;;;2.90;99.90;;;;;;5018948;28;20045;-82
2022/01/21 09:49:26;;;;;;;7.63;5.75;;;3.00;99.90;;;;;;5053215;28;20421;-82
2022/01/21 09:52:09;;;;;;;7.28;5.25;;;2.90;99.90;;;;;;5034889;28;20127;-84
2022/01/21 09:54:45;;;;;;;8.30;5.53;;;2.90;99.90;;;;;;5053524;28;20497;-83
2022/01/21 09:57:20;;;;;;;7.78;5.45;;;3.10;99.90;;;;;;5035761;28;20041;-83
2022/01/21 09:59:50;;;;;;;6.82;5.25;;;3.10;99.90;;;;;;5019173;28;20432;-84
2022/01/21 10:02:20;;;;;;;6.05;5.07;;;3.10;99.90;;;;;;5035351;28;20264;-83
2022/01/21 10:04:51;;;;;;;10.85;5.35;;;3.10;99.90;;;;;;5053003;28;20111;-84
2022/01/21 10:07:21;;;;;;;5.13;4.63;;;3.20;99.90;;;;;;5035134;28;20029;-84
2022/01/21 10:09:50;;;;;;;;;;;3.20;99.90;;;;;;5018341;28;20045;-84
2022/01/21 10:12:18;;;;;;;6.82;4.82;;;3.20;99.90;;;;;;5034795;28;20011;-83
2022/01/21 10:14:46;;;;;;;5.93;5.00;;;3.20;99.90;;;;;;5018527;28;20063;-85
2022/01/21 10:17:14;;;;;;;7.22;5.25;;;3.20;99.90;;;;;;5018530;28;20384;-81
2022/01/21 10:19:48;;;;;;;5.65;5.03;;;3.20;99.90;;;;;;5052546;28;20043;-82
2022/01/21 10:22:20;;;;;;;5.45;4.53;;;3.10;99.90;;;;;;5034719;28;20053;-83
2022/01/21 10:25:01;;;;;;;6.72;5.10;;;3.10;99.90;;;;;;5052268;28;20033;-83
2022/01/21 10:27:59;;;;;;;5.75;5.00;;;3.00;99.90;;;;;;5018777;28;20140;-83
2022/01/21 10:30:28;;;;;;;5.05;4.55;;;3.00;99.90;;;;;;5014138;28;20431;-82
2022/01/21 10:32:55;;;;;;;6.82;5.28;;;3.20;99.90;;;;;;5018251;28;20072;-82
2022/01/21 10:35:35;;;;;;;6.10;5.20;;;3.20;99.90;;;;;;5035796;28;20045;-84
2022/01/21 10:38:24;;;;;;;7.03;5.25;;;3.10;99.90;;;;;;5052215;28;20047;-83
2022/01/21 10:40:51;;;;;;;6.30;5.00;;;3.10;99.90;;;;;;5034524;28;20064;-83
2022/01/21 10:43:21;;;;;;;7.75;5.57;;;3.20;99.90;;;;;;5034659;28;20045;-82
2022/01/21 10:45:56;;;;;;;5.65;4.97;;;3.20;99.90;;;;;;5034434;28;20427;-82
2022/01/21 10:48:27;;;;;;;7.13;5.20;;;3.30;99.90;;;;;;5052543;28;20041;-85
2022/01/21 10:51:17;;;;;;;7.22;5.40;;;3.30;99.90;;;;;;5034489;28;20051;-85
2022/01/21 10:53:45;;;;;;;7.10;5.50;;;3.40;99.90;;;;;;5018198;28;20070;-85
2022/01/21 10:56:16;;;;;;;10.70;5.30;;;3.40;99.90;;;;;;5034290;28;20056;-84
2022/01/21 10:58:52;;;;;;;7.72;5.68;;;3.40;99.90;;;;;;5018181;28;20045;-84
2022/01/21 11:01:24;;;;;;;9.18;5.20;;;3.60;99.90;;;;;;5034078;28;20040;-84
2022/01/21 11:04:11;;;;;;;6.10;5.47;;;3.60;99.90;;;;;;5034583;28;20382;-85
2022/01/21 11:06:54;;;;;;;7.60;5.68;;;3.50;99.90;;;;;;5033945;28;20400;-82
2022/01/21 11:09:29;;;;;;;7.38;4.72;;;3.50;99.90;;;;;;5033943;28;20069;-83
2022/01/21 11:12:12;;;;;;;9.20;5.50;;;3.50;99.90;;;;;;5017565;28;20135;-81
2022/01/21 11:15:04;;;;;;;6.63;5.00;;;3.50;99.90;;;;;;5051504;28;20408;-83
2022/01/21 11:17:34;;;;;;;7.03;5.47;;;3.60;99.90;;;;;;5033875;28;20052;-82
2022/01/21 11:20:16;;;;;;;6.57;4.95;;;3.60;99.90;;;;;;5034058;28;20064;-82
2022/01/21 11:22:58;;;;;;;7.00;4.53;;;3.50;99.90;;;;;;5037323;28;20112;-82
2022/01/21 11:25:50;;;;;;;5.43;4.82;;;3.40;99.70;;;;;;5055323;28;20055;-82
2022/01/21 11:28:22;;;;;;;5.20;4.70;;;3.50;99.10;;;;;;5055486;28;20041;-82
2022/01/21 11:30:52;;;;;;;6.18;4.97;;;3.50;99.00;;;;;;5037613;28;20436;-83
2022/01/21 11:33:22;;;;;;;6.28;4.88;;;3.70;97.90;;;;;;5021500;28;20060;-82
2022/01/21 11:35:51;;;;;;;5.13;4.55;;;3.80;97.10;;;;;;5055429;28;20037;-82
2022/01/21 11:38:20;;;;;;;7.22;4.72;;;3.90;97.40;;;;;;5055343;28;20063;-82
2022/01/21 11:40:49;;;;;;;7.20;5.00;;;4.10;97.80;;;;;;5055197;28;20495;-83
2022/01/21 11:43:17;;;;;;;5.03;4.40;;;4.30;96.70;;;;;;5037612;28;20479;-81
2022/01/21 11:48:51;;;;;;;4.88;3.95;;;3.80;92.50;;;;;;5037737;28;20059;-82
2022/01/21 11:51:32;;;;;;;5.90;4.70;;;3.90;93.90;;;;;;5037460;28;20041;-81
2022/01/21 11:54:05;;;;;;;4.85;4.05;;;3.80;93.60;;;;;;5037032;28;20051;-81
2022/01/21 11:56:35;;;;;;;4.13;3.72;;;3.60;93.20;;;;;;5037746;28;20102;-82
2022/01/21 11:59:04;;;;;;;;;;;3.50;92.10;;;;;;5037868;28;20110;-82
2022/01/21 12:01:34;;;;;;;6.97;4.60;;;3.70;92.40;;;;;;5021272;28;19920;-81
2022/01/21 12:04:04;;;;;;;5.47;4.00;;;3.70;90.40;;;;;;5037619;28;20049;-82
2022/01/21 12:06:33;;;;;;;5.15;4.22;;;3.60;90.30;;;;;;5037152;28;20453;-83
2022/01/21 12:09:04;;;;;;;7.75;4.55;;;3.70;91.40;;;;;;5054961;28;20045;-82
2022/01/21 12:11:38;;;;;;;5.57;4.32;;;3.50;92.00;;;;;;5037981;28;20116;-83
2022/01/21 12:14:32;;;;;;;5.75;4.50;;;3.60;93.60;;;;;;5036666;28;20053;-82
2022/01/21 12:17:13;;;;;;;5.28;4.55;;;3.60;94.00;;;;;;5037262;28;20404;-85
2022/01/21 12:19:41;;;;;;;5.95;4.35;;;3.70;94.10;;;;;;5054758;28;20041;-83
2022/01/21 12:22:18;;;;;;;8.30;5.00;;;3.70;94.20;;;;;;5037070;28;20435;-82
2022/01/21 12:24:51;;;;;;;6.00;4.63;;;3.70;95.40;;;;;;5020484;28;20057;-83
2022/01/21 12:27:21;;;;;;;5.05;4.50;;;3.90;95.00;;;;;;5020590;28;20048;-82
2022/01/21 12:29:49;;;;;;;5.07;4.55;;;3.80;94.30;;;;;;5020330;28;20057;-83
2022/01/21 12:32:37;;;;;;;8.32;4.43;;;3.60;93.60;;;;;;5053992;28;20045;-82
2022/01/21 12:35:08;;;;;;;5.18;4.35;;;3.60;92.60;;;;;;5020227;28;20053;-83
2022/01/21 12:38:03;;;;;;;4.72;4.22;;;3.60;93.60;;;;;;5036802;28;20397;-82
2022/01/21 12:40:37;;;;;;;5.32;4.47;;;3.70;92.60;;;;;;5020721;28;20085;-83
2022/01/21 12:43:36;;;;;;;6.72;4.40;;;3.70;92.50;;;;;;5036689;28;20037;-83
2022/01/21 12:46:06;;;;;;;5.90;4.47;;;3.80;90.10;;;;;;5036480;28;20052;-84
2022/01/21 12:48:35;;;;;;;6.10;4.80;;;3.80;91.60;;;;;;5054555;28;20044;-82
2022/01/21 12:51:20;;;;;;;5.60;4.95;;;3.90;91.60;;;;;;5036552;28;20095;-82
2022/01/21 12:56:58;;;;;;;6.78;5.35;;;3.90;90.70;;;;;;5036317;28;20044;-83
2022/01/21 12:59:28;;;;;;;7.93;5.32;;;3.90;90.50;;;;;;5054065;28;20159;-84
2022/01/21 13:02:04;;;;;;;5.95;4.70;;;3.90;90.00;;;;;;5036114;28;20045;-84
2022/01/21 13:04:51;;;;;;;7.10;5.38;;;3.90;88.50;;;;;;5053616;28;20044;-82
2022/01/21 13:07:33;;;;;;;6.55;4.65;;;3.90;89.80;;;;;;5019747;28;20043;-82
2022/01/21 13:10:01;;;;;;;5.85;4.70;;;3.90;85.60;;;;;;5019808;28;20064;-83
2022/01/21 13:15:43;;;;;;;7.13;4.75;;;4.00;86.10;;;;;;5036084;28;20140;-85
2022/01/21 13:18:14;;;;;;;11.23;4.75;;;3.90;80.50;;;;;;5036006;28;20112;-83
2022/01/21 13:21:08;;;;;;;4.95;4.32;;;3.90;80.00;;;;;;5053381;28;20068;-83
2022/01/21 13:23:43;;;;;;;6.82;5.00;;;3.80;80.00;;;;;;5053988;28;20441;-84
2022/01/21 13:26:15;;;;;;;5.88;4.70;;;3.80;81.80;;;;;;5019836;28;20049;-84
2022/01/21 13:29:09;;;;;;;7.10;4.88;;;4.00;82.50;;;;;;5053376;28;20483;-83
2022/01/21 13:31:52;;;;;;;13.23;5.53;;;4.10;84.00;;;;;;5019411;28;20057;-85
2022/01/21 13:34:33;;;;;;;8.23;4.50;;;4.20;84.00;;;;;;5053140;28;20404;-82
2022/01/21 13:37:02;;;;;;;6.78;4.60;;;4.10;84.50;;;;;;5019043;28;20136;-83
2022/01/21 13:39:34;;;;;;;9.30;5.07;;;4.10;84.50;;;;;;5019431;28;20045;-83
2022/01/21 13:42:11;;;;;;;6.53;4.53;;;4.30;85.70;;;;;;5035847;28;20048;-85
2022/01/21 13:44:43;;;;;;;5.68;4.57;;;4.40;84.20;;;;;;5035456;28;20041;-85
2022/01/21 13:47:39;;;;;;;8.70;5.32;;;4.30;84.90;;;;;;5035369;28;20118;-81
2022/01/21 13:50:14;;;;;;;8.20;4.80;;;4.60;86.10;;;;;;5053140;28;20045;-84
2022/01/21 13:52:43;;;;;;;6.72;5.20;;;4.10;83.50;;;;;;5035130;28;20076;-82
2022/01/21 13:55:42;;;;;;;7.25;5.15;;;4.00;84.20;;;;;;5053121;28;20124;-84
2022/01/21 13:58:15;;;;;;;5.60;4.70;;;4.00;86.10;;;;;;5035107;28;20436;-83
2022/01/21 14:00:46;;;;;;;7.50;4.82;;;4.10;84.40;;;;;;5035407;28;20396;-83
2022/01/21 14:03:22;;;;;;;;;;;4.30;82.70;;;;;;5035688;28;20044;-83
2022/01/21 14:06:05;;;;;;;5.95;4.38;;;4.10;84.90;;;;;;5035072;28;20339;-82